Pisces Leader — HPCT — position and weather

sailwx.info

Track history (hours):
 
Tides and Currents Weather Stations Pressure Air Temp Water Temp Dewpoint Dewpoint Depression Visibility Wind Speed Wind Dir Waves Ship Positions

Pisces Leader

Last reported at 2017-Nov-06 02:31 UTC. Time now 2017-Nov-18 21:24 UTC.
Position N 01°15' E 103°24'.
Warning: this ship's position is 12 days out of date.

Length 199 m; draft 9.8 m.

Type: Cargo ship. MMSI: 353987000.

Date/timePositionNaut miles runAvg speedWind from/ knotsBaromVisibWave heightAir tempDewpointWater temp
2017-Nov-06 02:31N 01°15' E 103°24'815.1
2017-Nov-06 02:01N 01°13' E 103°31'713.5
2017-Nov-06 01:30N 01°11' E 103°38'611.0
2017-Nov-06 01:00N 01°14' E 103°43'4 7.3
2017-Nov-06 00:30N 01°17' E 103°45'0 0.2
2017-Nov-05 23:59N 01°17' E 103°45'0 0.0
2017-Nov-05 23:29N 01°17' E 103°45'0 0.0
2017-Nov-05 22:59N 01°17' E 103°45'0 0.0
2017-Nov-05 22:29N 01°17' E 103°45'0 0.0
2017-Nov-05 21:56N 01°17' E 103°45'0 0.0
2017-Nov-05 21:29N 01°17' E 103°45'0 0.0
2017-Nov-05 20:59N 01°17' E 103°45'0 0.0
2017-Nov-05 20:29N 01°17' E 103°45'0 0.0
2017-Nov-05 19:59N 01°17' E 103°45'0 0.0
2017-Nov-05 19:26N 01°17' E 103°45'0 0.0
2017-Nov-05 18:53N 01°17' E 103°45'0 0.0
2017-Nov-05 18:29N 01°17' E 103°45'0 0.0
2017-Nov-05 17:59N 01°17' E 103°45'0 0.0
2017-Nov-05 17:29N 01°17' E 103°45'0 0.0
2017-Nov-05 16:59N 01°17' E 103°45'0 0.0
2017-Nov-05 16:29N 01°17' E 103°45'0 0.0
2017-Nov-05 15:59N 01°17' E 103°45'0 0.0
2017-Nov-05 15:29N 01°17' E 103°45'0 0.0
2017-Nov-05 14:59N 01°17' E 103°45'0 0.0
2017-Nov-05 14:29N 01°17' E 103°45'0 0.1
2017-Nov-05 13:56N 01°17' E 103°45'0 0.0
2017-Nov-05 13:29N 01°17' E 103°45'0 0.0
2017-Nov-05 12:50N 01°17' E 103°45'0 0.0
2017-Nov-05 12:29N 01°17' E 103°45'0 0.1
2017-Nov-05 11:56N 01°17' E 103°45'0 0.1
2017-Nov-05 11:29N 01°17' E 103°45'0 0.1
2017-Nov-05 10:59N 01°17' E 103°45'0 0.0
2017-Nov-05 10:29N 01°17' E 103°45'0 0.0
2017-Nov-05 09:59N 01°17' E 103°45'0 0.0
2017-Nov-05 09:26N 01°17' E 103°45'0 0.0
2017-Nov-05 08:53N 01°17' E 103°45'0 0.1
2017-Nov-05 08:26N 01°17' E 103°45'0 0.0
2017-Nov-05 07:59N 01°17' E 103°45'0 0.1
2017-Nov-05 07:26N 01°17' E 103°45'0 0.0
2017-Nov-05 06:59N 01°17' E 103°45'0 0.0
2017-Nov-05 06:29N 01°17' E 103°45'0 0.0
2017-Nov-05 05:59N 01°17' E 103°45'0 0.0
2017-Nov-05 05:29N 01°17' E 103°45'0 0.0
2017-Nov-05 04:59N 01°17' E 103°45'0 0.0
2017-Nov-05 04:29N 01°17' E 103°45'0 0.0
2017-Nov-05 03:59N 01°17' E 103°45'0 0.0
2017-Nov-05 03:29N 01°17' E 103°45'0 0.0
2017-Nov-05 02:59N 01°17' E 103°45'0 0.0
2017-Nov-05 02:26N 01°17' E 103°45'0 0.1
2017-Nov-05 01:56N 01°17' E 103°45'0 0.1
2017-Nov-05 01:29N 01°17' E 103°45'0 0.0
2017-Nov-05 00:59N 01°17' E 103°45'0 0.0
2017-Nov-05 00:29N 01°17' E 103°45'0 0.0
2017-Nov-04 23:59N 01°17' E 103°45'0 0.1
2017-Nov-04 23:29N 01°17' E 103°45'0 0.1
2017-Nov-04 22:59N 01°17' E 103°45'0 0.0
2017-Nov-04 22:29N 01°17' E 103°45'0 0.0
2017-Nov-04 21:59N 01°17' E 103°45'0 0.0
2017-Nov-04 21:29N 01°17' E 103°45'0 0.1
2017-Nov-04 21:00N 01°17' E 103°45'2 3.4
2017-Nov-04 20:30N 01°16' E 103°46'4 8.1
2017-Nov-04 20:01N 01°13' E 103°49'510.2
2017-Nov-04 19:30N 01°13' E 103°54'4 8.2
2017-Nov-04 19:01N 01°15' E 103°58'510.1
2017-Nov-04 18:30N 01°16' E 104°03'610.2
2017-Nov-04 17:58N 01°17' E 104°08'510.1
2017-Nov-04 17:27N 01°18' E 104°13'810.5
2017-Nov-04 16:40N 01°20' E 104°21'211.6
2017-Nov-04 16:29N 01°21' E 104°23'  
2017-Oct-27 14:09N 33°53' E 134°59'318.3
2017-Oct-27 13:59N 33°56' E 134°59'816.7
2017-Oct-27 13:30N 34°04' E 134°58'714.2
2017-Oct-27 13:00N 34°11' E 134°57'612.4
2017-Oct-27 12:30N 34°17' E 134°58'918.4
2017-Oct-27 12:00N 34°25' E 135°04'1018.9
2017-Oct-27 11:30N 34°31' E 135°13'815.3
2017-Oct-27 11:00N 34°38' E 135°18'4 7.7
2017-Oct-27 10:30N 34°41' E 135°17'0 0.9
2017-Oct-27 09:59N 34°42' E 135°17'0 0.0
2017-Oct-27 09:11N 34°42' E 135°17'0 0.0
2017-Oct-27 08:53N 34°42' E 135°17'0 0.0
2017-Oct-27 08:29N 34°42' E 135°17'0 0.0
2017-Oct-27 07:59N 34°42' E 135°17'0 0.0
2017-Oct-27 07:29N 34°42' E 135°17'0 0.0
2017-Oct-27 06:53N 34°42' E 135°17'0 0.0
2017-Oct-27 06:23N 34°42' E 135°17'0 0.0
2017-Oct-27 05:53N 34°42' E 135°17'0 0.0
2017-Oct-27 05:29N 34°42' E 135°17'0 0.0
2017-Oct-27 04:59N 34°42' E 135°17'0 0.0
2017-Oct-27 04:29N 34°42' E 135°17'0 0.0
2017-Oct-27 03:11N 34°42' E 135°17'0 0.0
2017-Oct-27 02:53N 34°42' E 135°17'  
Track history (hours):
 
Tides and Currents Weather Stations Pressure Air Temp Water Temp Dewpoint Dewpoint Depression Visibility Wind Speed Wind Dir Waves Ship Positions

Pisces Leader

Last reported at 2017-Nov-06 02:31 UTC. Time now 2017-Nov-18 21:24 UTC.
Position N 01°15' E 103°24'.
Warning: this ship's position is 12 days out of date.

Length 199 m; draft 9.8 m.

Type: Cargo ship. MMSI: 353987000.

Date/timePositionNaut miles runAvg speedWind from/ knotsBaromVisibWave heightAir tempDewpointWater temp
2017-Nov-06 02:31N 01°15' E 103°24'815.1
2017-Nov-06 02:01N 01°13' E 103°31'713.5
2017-Nov-06 01:30N 01°11' E 103°38'611.0
2017-Nov-06 01:00N 01°14' E 103°43'4 7.3
2017-Nov-06 00:30N 01°17' E 103°45'0 0.2
2017-Nov-05 23:59N 01°17' E 103°45'0 0.0
2017-Nov-05 23:29N 01°17' E 103°45'0 0.0
2017-Nov-05 22:59N 01°17' E 103°45'0 0.0
2017-Nov-05 22:29N 01°17' E 103°45'0 0.0
2017-Nov-05 21:56N 01°17' E 103°45'0 0.0
2017-Nov-05 21:29N 01°17' E 103°45'0 0.0
2017-Nov-05 20:59N 01°17' E 103°45'0 0.0
2017-Nov-05 20:29N 01°17' E 103°45'0 0.0
2017-Nov-05 19:59N 01°17' E 103°45'0 0.0
2017-Nov-05 19:26N 01°17' E 103°45'0 0.0
2017-Nov-05 18:53N 01°17' E 103°45'0 0.0
2017-Nov-05 18:29N 01°17' E 103°45'0 0.0
2017-Nov-05 17:59N 01°17' E 103°45'0 0.0
2017-Nov-05 17:29N 01°17' E 103°45'0 0.0
2017-Nov-05 16:59N 01°17' E 103°45'0 0.0
2017-Nov-05 16:29N 01°17' E 103°45'0 0.0
2017-Nov-05 15:59N 01°17' E 103°45'0 0.0
2017-Nov-05 15:29N 01°17' E 103°45'0 0.0
2017-Nov-05 14:59N 01°17' E 103°45'0 0.0
2017-Nov-05 14:29N 01°17' E 103°45'0 0.1
2017-Nov-05 13:56N 01°17' E 103°45'0 0.0
2017-Nov-05 13:29N 01°17' E 103°45'0 0.0
2017-Nov-05 12:50N 01°17' E 103°45'0 0.0
2017-Nov-05 12:29N 01°17' E 103°45'0 0.1
2017-Nov-05 11:56N 01°17' E 103°45'0 0.1
2017-Nov-05 11:29N 01°17' E 103°45'0 0.1
2017-Nov-05 10:59N 01°17' E 103°45'0 0.0
2017-Nov-05 10:29N 01°17' E 103°45'0 0.0
2017-Nov-05 09:59N 01°17' E 103°45'0 0.0
2017-Nov-05 09:26N 01°17' E 103°45'0 0.0
2017-Nov-05 08:53N 01°17' E 103°45'0 0.1
2017-Nov-05 08:26N 01°17' E 103°45'0 0.0
2017-Nov-05 07:59N 01°17' E 103°45'0 0.1
2017-Nov-05 07:26N 01°17' E 103°45'0 0.0
2017-Nov-05 06:59N 01°17' E 103°45'0 0.0
2017-Nov-05 06:29N 01°17' E 103°45'0 0.0
2017-Nov-05 05:59N 01°17' E 103°45'0 0.0
2017-Nov-05 05:29N 01°17' E 103°45'0 0.0
2017-Nov-05 04:59N 01°17' E 103°45'0 0.0
2017-Nov-05 04:29N 01°17' E 103°45'0 0.0
2017-Nov-05 03:59N 01°17' E 103°45'0 0.0
2017-Nov-05 03:29N 01°17' E 103°45'0 0.0
2017-Nov-05 02:59N 01°17' E 103°45'0 0.0
2017-Nov-05 02:26N 01°17' E 103°45'0 0.1
2017-Nov-05 01:56N 01°17' E 103°45'0 0.1
2017-Nov-05 01:29N 01°17' E 103°45'0 0.0
2017-Nov-05 00:59N 01°17' E 103°45'0 0.0
2017-Nov-05 00:29N 01°17' E 103°45'0 0.0
2017-Nov-04 23:59N 01°17' E 103°45'0 0.1
2017-Nov-04 23:29N 01°17' E 103°45'0 0.1
2017-Nov-04 22:59N 01°17' E 103°45'0 0.0
2017-Nov-04 22:29N 01°17' E 103°45'0 0.0
2017-Nov-04 21:59N 01°17' E 103°45'0 0.0
2017-Nov-04 21:29N 01°17' E 103°45'0 0.1
2017-Nov-04 21:00N 01°17' E 103°45'2 3.4
2017-Nov-04 20:30N 01°16' E 103°46'4 8.1
2017-Nov-04 20:01N 01°13' E 103°49'510.2
2017-Nov-04 19:30N 01°13' E 103°54'4 8.2
2017-Nov-04 19:01N 01°15' E 103°58'510.1
2017-Nov-04 18:30N 01°16' E 104°03'610.2
2017-Nov-04 17:58N 01°17' E 104°08'510.1
2017-Nov-04 17:27N 01°18' E 104°13'810.5
2017-Nov-04 16:40N 01°20' E 104°21'211.6
2017-Nov-04 16:29N 01°21' E 104°23'  
2017-Oct-27 14:09N 33°53' E 134°59'318.3
2017-Oct-27 13:59N 33°56' E 134°59'816.7
2017-Oct-27 13:30N 34°04' E 134°58'714.2
2017-Oct-27 13:00N 34°11' E 134°57'612.4
2017-Oct-27 12:30N 34°17' E 134°58'918.4
2017-Oct-27 12:00N 34°25' E 135°04'1018.9
2017-Oct-27 11:30N 34°31' E 135°13'815.3
2017-Oct-27 11:00N 34°38' E 135°18'4 7.7
2017-Oct-27 10:30N 34°41' E 135°17'0 0.9
2017-Oct-27 09:59N 34°42' E 135°17'0 0.0
2017-Oct-27 09:11N 34°42' E 135°17'0 0.0
2017-Oct-27 08:53N 34°42' E 135°17'0 0.0
2017-Oct-27 08:29N 34°42' E 135°17'0 0.0
2017-Oct-27 07:59N 34°42' E 135°17'0 0.0
2017-Oct-27 07:29N 34°42' E 135°17'0 0.0
2017-Oct-27 06:53N 34°42' E 135°17'0 0.0
2017-Oct-27 06:23N 34°42' E 135°17'0 0.0
2017-Oct-27 05:53N 34°42' E 135°17'0 0.0
2017-Oct-27 05:29N 34°42' E 135°17'0 0.0
2017-Oct-27 04:59N 34°42' E 135°17'0 0.0
2017-Oct-27 04:29N 34°42' E 135°17'0 0.0
2017-Oct-27 03:11N 34°42' E 135°17'0 0.0
2017-Oct-27 02:53N 34°42' E 135°17'  

Dump ship's entire track history